Terminal Aerodrome Forecast
Issued by NWS

Home | Current Version | Previous Version | Text Only | Print | Product List | Glossary On
Versions: 1 2 3 4 5 6 7 8 9 10 11 12 13 14 15 16
324
FTUS43 KMQT 261120
TAFCMX
TAF
KCMX 261120Z 2612/2712 24011G18KT P6SM -SHRA OVC020
     FM261300 25014G22KT P6SM -SHRA OVC015
     FM261500 24016G27KT 6SM -SHRA OVC015
     FM261700 26024G34KT 6SM -SHRA OVC015
     FM262100 27027G37KT 6SM -SHRA OVC020
     FM262300 28026G37KT 6SM -SHRA OVC015
     FM270600 29024G32KT P6SM -SHRA OVC015=

USA.gov is the U.S. government's official web portal to all federal, state and local government web resources and services.